sensor_id;sensor_type;location;lat;lon;timestamp;P1;durP1;ratioP1;P2;durP2;ratioP2
40955;SDS011;26687;48.254;11.454;2023-04-30T00:00:04;3.10;;;2.87;;
40955;SDS011;26687;48.254;11.454;2023-04-30T00:03:07;2.78;;;2.58;;
40955;SDS011;26687;48.254;11.454;2023-04-30T00:06:07;3.08;;;2.80;;
40955;SDS011;26687;48.254;11.454;2023-04-30T00:09:07;2.92;;;2.63;;
40955;SDS011;26687;48.254;11.454;2023-04-30T00:12:08;3.28;;;3.00;;
40955;SDS011;26687;48.254;11.454;2023-04-30T00:15:08;2.90;;;2.70;;
40955;SDS011;26687;48.254;11.454;2023-04-30T00:18:08;3.20;;;2.58;;
40955;SDS011;26687;48.254;11.454;2023-04-30T00:21:08;2.93;;;2.73;;
40955;SDS011;26687;48.254;11.454;2023-04-30T00:24:08;3.00;;;2.78;;
40955;SDS011;26687;48.254;11.454;2023-04-30T00:27:09;3.10;;;2.85;;
40955;SDS011;26687;48.254;11.454;2023-04-30T00:30:09;3.05;;;2.72;;
40955;SDS011;26687;48.254;11.454;2023-04-30T00:33:09;3.75;;;2.75;;
40955;SDS011;26687;48.254;11.454;2023-04-30T00:36:10;3.20;;;3.00;;
40955;SDS011;26687;48.254;11.454;2023-04-30T00:39:10;3.13;;;2.83;;
40955;SDS011;26687;48.254;11.454;2023-04-30T00:42:10;3.22;;;3.00;;
40955;SDS011;26687;48.254;11.454;2023-04-30T00:45:10;3.17;;;2.88;;
40955;SDS011;26687;48.254;11.454;2023-04-30T00:48:11;3.22;;;2.85;;
40955;SDS011;26687;48.254;11.454;2023-04-30T00:51:11;3.10;;;2.90;;
40955;SDS011;26687;48.254;11.454;2023-04-30T00:54:11;2.72;;;2.42;;
40955;SDS011;26687;48.254;11.454;2023-04-30T00:57:11;5.75;;;3.15;;
40955;SDS011;26687;48.254;11.454;2023-04-30T01:00:14;3.08;;;2.88;;
40955;SDS011;26687;48.254;11.454;2023-04-30T01:03:15;3.47;;;3.17;;
40955;SDS011;26687;48.254;11.454;2023-04-30T01:06:15;3.35;;;2.95;;
40955;SDS011;26687;48.254;11.454;2023-04-30T01:09:15;5.30;;;2.92;;
40955;SDS011;26687;48.254;11.454;2023-04-30T01:12:18;6.00;;;3.03;;
40955;SDS011;26687;48.254;11.454;2023-04-30T01:18:30;3.75;;;3.38;;
40955;SDS011;26687;48.254;11.454;2023-04-30T01:21:32;3.53;;;3.33;;
40955;SDS011;26687;48.254;11.454;2023-04-30T01:30:47;3.40;;;3.10;;
40955;SDS011;26687;48.254;11.454;2023-04-30T01:33:47;4.07;;;3.58;;
40955;SDS011;26687;48.254;11.454;2023-04-30T01:43:11;3.30;;;3.03;;
40955;SDS011;26687;48.254;11.454;2023-04-30T01:46:51;3.60;;;3.30;;
40955;SDS011;26687;48.254;11.454;2023-04-30T01:53:04;3.40;;;3.10;;
40955;SDS011;26687;48.254;11.454;2023-04-30T01:56:05;3.75;;;3.45;;
40955;SDS011;26687;48.254;11.454;2023-04-30T01:59:08;3.67;;;3.35;;
40955;SDS011;26687;48.254;11.454;2023-04-30T02:02:09;3.70;;;3.40;;
40955;SDS011;26687;48.254;11.454;2023-04-30T02:05:09;4.28;;;3.55;;
40955;SDS011;26687;48.254;11.454;2023-04-30T02:08:09;3.60;;;3.30;;
40955;SDS011;26687;48.254;11.454;2023-04-30T02:11:09;4.10;;;3.72;;
40955;SDS011;26687;48.254;11.454;2023-04-30T02:14:10;4.18;;;3.80;;
40955;SDS011;26687;48.254;11.454;2023-04-30T02:17:10;4.03;;;3.72;;
40955;SDS011;26687;48.254;11.454;2023-04-30T02:20:10;4.40;;;4.03;;
40955;SDS011;26687;48.254;11.454;2023-04-30T02:23:10;4.82;;;4.43;;
40955;SDS011;26687;48.254;11.454;2023-04-30T02:26:11;4.47;;;4.07;;
40955;SDS011;26687;48.254;11.454;2023-04-30T02:29:11;4.90;;;4.50;;
40955;SDS011;26687;48.254;11.454;2023-04-30T02:32:11;5.88;;;4.47;;
40955;SDS011;26687;48.254;11.454;2023-04-30T02:35:11;5.75;;;4.88;;
40955;SDS011;26687;48.254;11.454;2023-04-30T02:38:11;5.05;;;4.65;;
40955;SDS011;26687;48.254;11.454;2023-04-30T02:41:12;4.90;;;4.50;;
40955;SDS011;26687;48.254;11.454;2023-04-30T02:44:12;6.38;;;4.78;;
40955;SDS011;26687;48.254;11.454;2023-04-30T02:47:12;5.32;;;4.82;;
40955;SDS011;26687;48.254;11.454;2023-04-30T02:50:12;5.30;;;4.90;;
40955;SDS011;26687;48.254;11.454;2023-04-30T02:53:12;5.03;;;4.50;;
40955;SDS011;26687;48.254;11.454;2023-04-30T02:56:13;5.17;;;4.70;;
40955;SDS011;26687;48.254;11.454;2023-04-30T02:59:13;5.80;;;5.30;;
40955;SDS011;26687;48.254;11.454;2023-04-30T03:02:13;5.47;;;5.07;;
40955;SDS011;26687;48.254;11.454;2023-04-30T03:05:13;5.10;;;4.70;;
40955;SDS011;26687;48.254;11.454;2023-04-30T03:08:14;5.78;;;5.28;;
40955;SDS011;26687;48.254;11.454;2023-04-30T03:11:15;5.47;;;4.97;;
40955;SDS011;26687;48.254;11.454;2023-04-30T03:14:15;5.53;;;5.03;;
40955;SDS011;26687;48.254;11.454;2023-04-30T03:17:15;5.68;;;5.18;;
40955;SDS011;26687;48.254;11.454;2023-04-30T03:20:15;5.63;;;5.13;;
40955;SDS011;26687;48.254;11.454;2023-04-30T03:23:15;5.60;;;5.10;;
40955;SDS011;26687;48.254;11.454;2023-04-30T03:26:16;5.50;;;5.03;;
40955;SDS011;26687;48.254;11.454;2023-04-30T03:29:16;6.10;;;5.60;;
40955;SDS011;26687;48.254;11.454;2023-04-30T03:32:16;5.60;;;5.07;;
40955;SDS011;26687;48.254;11.454;2023-04-30T03:35:16;5.75;;;5.18;;
40955;SDS011;26687;48.254;11.454;2023-04-30T03:38:18;6.07;;;5.57;;
40955;SDS011;26687;48.254;11.454;2023-04-30T03:41:18;4.93;;;4.53;;
40955;SDS011;26687;48.254;11.454;2023-04-30T03:44:18;6.00;;;5.40;;
40955;SDS011;26687;48.254;11.454;2023-04-30T03:47:18;5.18;;;4.78;;
40955;SDS011;26687;48.254;11.454;2023-04-30T03:50:19;5.72;;;5.22;;
40955;SDS011;26687;48.254;11.454;2023-04-30T03:53:19;6.05;;;5.53;;
40955;SDS011;26687;48.254;11.454;2023-04-30T03:56:19;5.60;;;5.00;;
40955;SDS011;26687;48.254;11.454;2023-04-30T03:59:20;6.00;;;5.40;;
40955;SDS011;26687;48.254;11.454;2023-04-30T04:02:21;5.90;;;5.30;;
40955;SDS011;26687;48.254;11.454;2023-04-30T04:05:21;5.97;;;5.47;;
40955;SDS011;26687;48.254;11.454;2023-04-30T04:08:22;6.22;;;5.72;;
40955;SDS011;26687;48.254;11.454;2023-04-30T04:11:22;6.20;;;5.70;;
40955;SDS011;26687;48.254;11.454;2023-04-30T04:14:22;5.43;;;4.93;;
40955;SDS011;26687;48.254;11.454;2023-04-30T04:17:22;5.70;;;5.20;;
40955;SDS011;26687;48.254;11.454;2023-04-30T04:20:22;5.63;;;5.13;;
40955;SDS011;26687;48.254;11.454;2023-04-30T04:23:23;5.87;;;5.37;;
40955;SDS011;26687;48.254;11.454;2023-04-30T04:26:23;5.80;;;5.30;;
40955;SDS011;26687;48.254;11.454;2023-04-30T04:29:24;5.38;;;4.88;;
40955;SDS011;26687;48.254;11.454;2023-04-30T04:32:24;6.17;;;5.63;;
40955;SDS011;26687;48.254;11.454;2023-04-30T04:35:24;5.50;;;5.10;;
40955;SDS011;26687;48.254;11.454;2023-04-30T04:38:25;6.53;;;5.93;;
40955;SDS011;26687;48.254;11.454;2023-04-30T04:41:25;5.88;;;5.38;;
40955;SDS011;26687;48.254;11.454;2023-04-30T04:44:25;5.53;;;5.03;;
40955;SDS011;26687;48.254;11.454;2023-04-30T04:47:26;5.65;;;5.10;;
40955;SDS011;26687;48.254;11.454;2023-04-30T04:50:26;5.70;;;5.20;;
40955;SDS011;26687;48.254;11.454;2023-04-30T04:53:26;5.40;;;4.90;;
40955;SDS011;26687;48.254;11.454;2023-04-30T04:56:26;5.72;;;5.20;;
40955;SDS011;26687;48.254;11.454;2023-04-30T04:59:26;6.00;;;5.50;;
40955;SDS011;26687;48.254;11.454;2023-04-30T05:02:27;5.67;;;5.13;;
40955;SDS011;26687;48.254;11.454;2023-04-30T05:05:27;5.82;;;5.32;;
40955;SDS011;26687;48.254;11.454;2023-04-30T05:08:27;5.65;;;5.25;;
40955;SDS011;26687;48.254;11.454;2023-04-30T05:11:27;6.35;;;5.80;;
40955;SDS011;26687;48.254;11.454;2023-04-30T05:14:27;5.13;;;4.73;;
40955;SDS011;26687;48.254;11.454;2023-04-30T05:17:28;5.70;;;5.20;;
40955;SDS011;26687;48.254;11.454;2023-04-30T05:20:28;5.43;;;5.03;;
40955;SDS011;26687;48.254;11.454;2023-04-30T05:23:28;5.70;;;5.20;;
40955;SDS011;26687;48.254;11.454;2023-04-30T05:26:28;5.87;;;5.37;;
40955;SDS011;26687;48.254;11.454;2023-04-30T05:29:28;5.47;;;5.03;;
40955;SDS011;26687;48.254;11.454;2023-04-30T05:32:29;5.40;;;4.85;;
40955;SDS011;26687;48.254;11.454;2023-04-30T05:35:29;5.87;;;5.37;;
40955;SDS011;26687;48.254;11.454;2023-04-30T05:38:29;5.90;;;5.40;;
40955;SDS011;26687;48.254;11.454;2023-04-30T05:41:29;5.82;;;5.38;;
40955;SDS011;26687;48.254;11.454;2023-04-30T05:44:29;5.68;;;5.18;;
40955;SDS011;26687;48.254;11.454;2023-04-30T05:47:30;5.65;;;5.15;;
40955;SDS011;26687;48.254;11.454;2023-04-30T05:50:30;5.37;;;4.97;;
40955;SDS011;26687;48.254;11.454;2023-04-30T05:53:30;4.60;;;4.20;;
40955;SDS011;26687;48.254;11.454;2023-04-30T05:56:30;5.78;;;5.25;;
40955;SDS011;26687;48.254;11.454;2023-04-30T05:59:31;5.80;;;5.35;;
40955;SDS011;26687;48.254;11.454;2023-04-30T06:02:31;5.75;;;5.25;;
40955;SDS011;26687;48.254;11.454;2023-04-30T06:05:31;5.50;;;5.00;;
40955;SDS011;26687;48.254;11.454;2023-04-30T06:08:31;5.75;;;5.20;;
40955;SDS011;26687;48.254;11.454;2023-04-30T06:11:32;5.90;;;5.40;;
40955;SDS011;26687;48.254;11.454;2023-04-30T06:14:32;5.57;;;5.07;;
40955;SDS011;26687;48.254;11.454;2023-04-30T06:17:32;5.67;;;5.17;;
40955;SDS011;26687;48.254;11.454;2023-04-30T06:20:32;5.27;;;4.87;;
40955;SDS011;26687;48.254;11.454;2023-04-30T06:23:32;5.47;;;4.97;;
40955;SDS011;26687;48.254;11.454;2023-04-30T06:26:33;5.77;;;5.30;;
40955;SDS011;26687;48.254;11.454;2023-04-30T06:29:33;5.63;;;5.13;;
40955;SDS011;26687;48.254;11.454;2023-04-30T06:32:33;5.85;;;5.30;;
40955;SDS011;26687;48.254;11.454;2023-04-30T06:35:33;5.03;;;4.68;;
40955;SDS011;26687;48.254;11.454;2023-04-30T06:38:34;5.50;;;5.00;;
40955;SDS011;26687;48.254;11.454;2023-04-30T06:41:34;5.27;;;4.77;;
40955;SDS011;26687;48.254;11.454;2023-04-30T06:44:34;5.80;;;5.30;;
40955;SDS011;26687;48.254;11.454;2023-04-30T06:47:34;6.35;;;5.55;;
40955;SDS011;26687;48.254;11.454;2023-04-30T06:50:35;5.18;;;4.78;;
40955;SDS011;26687;48.254;11.454;2023-04-30T06:53:42;5.65;;;5.20;;
40955;SDS011;26687;48.254;11.454;2023-04-30T06:56:42;5.63;;;5.20;;
40955;SDS011;26687;48.254;11.454;2023-04-30T06:59:44;4.80;;;4.50;;
40955;SDS011;26687;48.254;11.454;2023-04-30T07:02:44;5.60;;;5.10;;
40955;SDS011;26687;48.254;11.454;2023-04-30T07:05:46;4.60;;;4.30;;
40955;SDS011;26687;48.254;11.454;2023-04-30T07:08:46;4.80;;;4.50;;
40955;SDS011;26687;48.254;11.454;2023-04-30T07:11:47;5.65;;;5.18;;
40955;SDS011;26687;48.254;11.454;2023-04-30T07:14:48;4.95;;;4.55;;
40955;SDS011;26687;48.254;11.454;2023-04-30T07:17:48;5.10;;;4.70;;
40955;SDS011;26687;48.254;11.454;2023-04-30T07:20:48;5.50;;;4.57;;
40955;SDS011;26687;48.254;11.454;2023-04-30T07:23:48;4.47;;;4.18;;
40955;SDS011;26687;48.254;11.454;2023-04-30T07:26:50;5.10;;;4.70;;
40955;SDS011;26687;48.254;11.454;2023-04-30T07:29:50;4.70;;;4.30;;
40955;SDS011;26687;48.254;11.454;2023-04-30T07:32:51;4.88;;;4.47;;
40955;SDS011;26687;48.254;11.454;2023-04-30T07:35:51;4.20;;;3.90;;
40955;SDS011;26687;48.254;11.454;2023-04-30T07:38:51;4.80;;;4.40;;
40955;SDS011;26687;48.254;11.454;2023-04-30T07:41:52;4.88;;;4.47;;
40955;SDS011;26687;48.254;11.454;2023-04-30T07:44:52;4.95;;;4.55;;
40955;SDS011;26687;48.254;11.454;2023-04-30T07:47:52;4.88;;;4.47;;
40955;SDS011;26687;48.254;11.454;2023-04-30T07:50:52;4.80;;;4.40;;
40955;SDS011;26687;48.254;11.454;2023-04-30T07:53:52;4.90;;;4.50;;
40955;SDS011;26687;48.254;11.454;2023-04-30T07:56:52;5.03;;;4.63;;
40955;SDS011;26687;48.254;11.454;2023-04-30T07:59:53;5.43;;;4.93;;
40955;SDS011;26687;48.254;11.454;2023-04-30T08:02:53;4.80;;;4.10;;
40955;SDS011;26687;48.254;11.454;2023-04-30T08:05:53;4.93;;;4.00;;
40955;SDS011;26687;48.254;11.454;2023-04-30T08:08:53;5.40;;;5.00;;
40955;SDS011;26687;48.254;11.454;2023-04-30T08:11:53;5.00;;;4.45;;
40955;SDS011;26687;48.254;11.454;2023-04-30T08:15:01;4.97;;;4.28;;
40955;SDS011;26687;48.254;11.454;2023-04-30T08:18:01;4.50;;;4.20;;
40955;SDS011;26687;48.254;11.454;2023-04-30T08:21:01;4.17;;;3.87;;
40955;SDS011;26687;48.254;11.454;2023-04-30T08:24:01;6.17;;;4.43;;
40955;SDS011;26687;48.254;11.454;2023-04-30T08:27:02;4.20;;;3.78;;
40955;SDS011;26687;48.254;11.454;2023-04-30T08:30:02;4.78;;;4.38;;
40955;SDS011;26687;48.254;11.454;2023-04-30T08:33:03;5.15;;;3.90;;
40955;SDS011;26687;48.254;11.454;2023-04-30T08:36:03;4.45;;;4.15;;
40955;SDS011;26687;48.254;11.454;2023-04-30T08:39:03;5.05;;;3.95;;
40955;SDS011;26687;48.254;11.454;2023-04-30T08:42:06;3.27;;;2.30;;
40955;SDS011;26687;48.254;11.454;2023-04-30T08:45:07;4.05;;;3.75;;
40955;SDS011;26687;48.254;11.454;2023-04-30T08:48:09;4.20;;;3.90;;
40955;SDS011;26687;48.254;11.454;2023-04-30T08:51:10;3.70;;;3.50;;
40955;SDS011;26687;48.254;11.454;2023-04-30T08:54:11;4.07;;;3.70;;
40955;SDS011;26687;48.254;11.454;2023-04-30T08:57:11;3.70;;;3.40;;
40955;SDS011;26687;48.254;11.454;2023-04-30T09:00:12;3.70;;;3.40;;
40955;SDS011;26687;48.254;11.454;2023-04-30T09:03:12;4.10;;;3.80;;
40955;SDS011;26687;48.254;11.454;2023-04-30T09:06:16;3.00;;;2.70;;
40955;SDS011;26687;48.254;11.454;2023-04-30T09:09:16;3.42;;;3.13;;
40955;SDS011;26687;48.254;11.454;2023-04-30T09:12:16;3.60;;;3.30;;
40955;SDS011;26687;48.254;11.454;2023-04-30T09:15:17;3.55;;;3.30;;
40955;SDS011;26687;48.254;11.454;2023-04-30T09:18:18;3.40;;;3.10;;
40955;SDS011;26687;48.254;11.454;2023-04-30T09:21:34;3.53;;;3.22;;
40955;SDS011;26687;48.254;11.454;2023-04-30T09:24:45;3.60;;;3.30;;
40955;SDS011;26687;48.254;11.454;2023-04-30T09:27:46;3.20;;;3.00;;
40955;SDS011;26687;48.254;11.454;2023-04-30T09:30:46;3.17;;;2.80;;
40955;SDS011;26687;48.254;11.454;2023-04-30T09:33:46;3.25;;;2.92;;
40955;SDS011;26687;48.254;11.454;2023-04-30T09:36:53;3.50;;;3.20;;
40955;SDS011;26687;48.254;11.454;2023-04-30T09:39:55;3.50;;;3.20;;
40955;SDS011;26687;48.254;11.454;2023-04-30T09:42:57;3.60;;;3.40;;
40955;SDS011;26687;48.254;11.454;2023-04-30T09:45:58;3.10;;;2.90;;
40955;SDS011;26687;48.254;11.454;2023-04-30T09:48:59;3.40;;;3.20;;
40955;SDS011;26687;48.254;11.454;2023-04-30T09:52:00;3.50;;;3.20;;
40955;SDS011;26687;48.254;11.454;2023-04-30T09:55:00;3.35;;;3.15;;
40955;SDS011;26687;48.254;11.454;2023-04-30T09:58:04;3.40;;;3.00;;
40955;SDS011;26687;48.254;11.454;2023-04-30T10:01:05;3.53;;;3.22;;
40955;SDS011;26687;48.254;11.454;2023-04-30T10:04:07;3.70;;;3.40;;
40955;SDS011;26687;48.254;11.454;2023-04-30T10:07:08;3.80;;;3.50;;
40955;SDS011;26687;48.254;11.454;2023-04-30T10:10:09;3.20;;;3.00;;
40955;SDS011;26687;48.254;11.454;2023-04-30T10:13:10;3.17;;;2.88;;
40955;SDS011;26687;48.254;11.454;2023-04-30T10:19:18;4.00;;;3.30;;
40955;SDS011;26687;48.254;11.454;2023-04-30T10:22:18;3.50;;;3.05;;
40955;SDS011;26687;48.254;11.454;2023-04-30T10:25:18;3.25;;;3.05;;
40955;SDS011;26687;48.254;11.454;2023-04-30T10:28:19;3.05;;;2.85;;
40955;SDS011;26687;48.254;11.454;2023-04-30T10:31:19;3.43;;;3.13;;
40955;SDS011;26687;48.254;11.454;2023-04-30T10:40:36;3.20;;;2.47;;
40955;SDS011;26687;48.254;11.454;2023-04-30T10:43:36;2.90;;;2.70;;
40955;SDS011;26687;48.254;11.454;2023-04-30T10:46:36;3.65;;;3.35;;
40955;SDS011;26687;48.254;11.454;2023-04-30T10:49:37;2.93;;;2.73;;
40955;SDS011;26687;48.254;11.454;2023-04-30T10:52:37;3.05;;;2.85;;
40955;SDS011;26687;48.254;11.454;2023-04-30T10:55:45;2.78;;;2.58;;
40955;SDS011;26687;48.254;11.454;2023-04-30T10:58:46;2.75;;;2.35;;
40955;SDS011;26687;48.254;11.454;2023-04-30T11:01:59;2.80;;;2.47;;
40955;SDS011;26687;48.254;11.454;2023-04-30T11:08:09;3.92;;;2.30;;
40955;SDS011;26687;48.254;11.454;2023-04-30T11:11:10;2.85;;;1.98;;
40955;SDS011;26687;48.254;11.454;2023-04-30T11:14:11;2.33;;;2.13;;
40955;SDS011;26687;48.254;11.454;2023-04-30T11:17:12;2.65;;;1.83;;
40955;SDS011;26687;48.254;11.454;2023-04-30T11:20:13;1.52;;;1.42;;
40955;SDS011;26687;48.254;11.454;2023-04-30T11:23:14;1.60;;;1.50;;
40955;SDS011;26687;48.254;11.454;2023-04-30T11:26:14;1.85;;;1.75;;
40955;SDS011;26687;48.254;11.454;2023-04-30T11:29:14;1.70;;;1.60;;
40955;SDS011;26687;48.254;11.454;2023-04-30T11:32:15;1.90;;;1.75;;
40955;SDS011;26687;48.254;11.454;2023-04-30T11:35:17;1.60;;;1.50;;
40955;SDS011;26687;48.254;11.454;2023-04-30T11:38:21;2.95;;;1.63;;
40955;SDS011;26687;48.254;11.454;2023-04-30T11:41:21;1.90;;;1.80;;
40955;SDS011;26687;48.254;11.454;2023-04-30T11:44:24;2.20;;;2.00;;
40955;SDS011;26687;48.254;11.454;2023-04-30T11:47:25;1.85;;;1.75;;
40955;SDS011;26687;48.254;11.454;2023-04-30T11:50:27;2.05;;;1.85;;
40955;SDS011;26687;48.254;11.454;2023-04-30T11:53:31;2.72;;;1.77;;
40955;SDS011;26687;48.254;11.454;2023-04-30T11:56:31;1.77;;;1.65;;
40955;SDS011;26687;48.254;11.454;2023-04-30T11:59:39;2.05;;;1.83;;
40955;SDS011;26687;48.254;11.454;2023-04-30T12:02:41;2.00;;;1.80;;
40955;SDS011;26687;48.254;11.454;2023-04-30T12:05:41;2.35;;;1.77;;
40955;SDS011;26687;48.254;11.454;2023-04-30T12:08:41;2.13;;;1.50;;
40955;SDS011;26687;48.254;11.454;2023-04-30T12:11:42;2.38;;;2.17;;
40955;SDS011;26687;48.254;11.454;2023-04-30T12:14:42;3.07;;;1.97;;
40955;SDS011;26687;48.254;11.454;2023-04-30T12:17:43;2.47;;;1.83;;
40955;SDS011;26687;48.254;11.454;2023-04-30T12:20:43;1.60;;;1.50;;
40955;SDS011;26687;48.254;11.454;2023-04-30T12:23:43;1.97;;;1.73;;
40955;SDS011;26687;48.254;11.454;2023-04-30T12:26:44;2.28;;;2.08;;
40955;SDS011;26687;48.254;11.454;2023-04-30T12:29:44;2.73;;;1.90;;
40955;SDS011;26687;48.254;11.454;2023-04-30T12:32:48;2.35;;;2.25;;
40955;SDS011;26687;48.254;11.454;2023-04-30T12:35:51;1.50;;;1.40;;
40955;SDS011;26687;48.254;11.454;2023-04-30T12:38:59;1.67;;;1.58;;
40955;SDS011;26687;48.254;11.454;2023-04-30T12:42:00;2.53;;;1.77;;
40955;SDS011;26687;48.254;11.454;2023-04-30T12:45:00;1.93;;;1.83;;
40955;SDS011;26687;48.254;11.454;2023-04-30T12:48:00;1.60;;;1.30;;
40955;SDS011;26687;48.254;11.454;2023-04-30T12:51:01;2.40;;;1.73;;
40955;SDS011;26687;48.254;11.454;2023-04-30T12:54:01;1.80;;;1.70;;
40955;SDS011;26687;48.254;11.454;2023-04-30T12:57:03;1.60;;;1.50;;
40955;SDS011;26687;48.254;11.454;2023-04-30T13:00:03;2.45;;;2.10;;
40955;SDS011;26687;48.254;11.454;2023-04-30T13:03:04;1.73;;;1.63;;
40955;SDS011;26687;48.254;11.454;2023-04-30T13:06:05;2.17;;;1.52;;
40955;SDS011;26687;48.254;11.454;2023-04-30T13:09:06;1.88;;;1.77;;
40955;SDS011;26687;48.254;11.454;2023-04-30T13:12:06;1.80;;;1.70;;
40955;SDS011;26687;48.254;11.454;2023-04-30T13:15:06;1.57;;;1.47;;
40955;SDS011;26687;48.254;11.454;2023-04-30T13:18:06;1.40;;;1.30;;
40955;SDS011;26687;48.254;11.454;2023-04-30T13:21:09;1.75;;;1.65;;
40955;SDS011;26687;48.254;11.454;2023-04-30T13:24:09;1.73;;;1.33;;
40955;SDS011;26687;48.254;11.454;2023-04-30T13:27:10;2.10;;;1.90;;
40955;SDS011;26687;48.254;11.454;2023-04-30T13:30:10;2.10;;;1.52;;
40955;SDS011;26687;48.254;11.454;2023-04-30T13:33:11;2.05;;;1.95;;
40955;SDS011;26687;48.254;11.454;2023-04-30T13:36:11;1.75;;;1.65;;
40955;SDS011;26687;48.254;11.454;2023-04-30T13:39:11;1.80;;;1.70;;
40955;SDS011;26687;48.254;11.454;2023-04-30T13:42:15;2.05;;;1.42;;
40955;SDS011;26687;48.254;11.454;2023-04-30T13:45:16;2.45;;;1.65;;
40955;SDS011;26687;48.254;11.454;2023-04-30T13:48:16;2.10;;;1.65;;
40955;SDS011;26687;48.254;11.454;2023-04-30T13:51:16;1.77;;;1.67;;
40955;SDS011;26687;48.254;11.454;2023-04-30T13:54:16;2.03;;;1.88;;
40955;SDS011;26687;48.254;11.454;2023-04-30T13:57:17;1.70;;;1.60;;
40955;SDS011;26687;48.254;11.454;2023-04-30T14:00:17;3.03;;;2.20;;
40955;SDS011;26687;48.254;11.454;2023-04-30T14:03:18;2.63;;;2.20;;
40955;SDS011;26687;48.254;11.454;2023-04-30T14:06:18;2.10;;;1.90;;
40955;SDS011;26687;48.254;11.454;2023-04-30T14:09:18;2.57;;;1.77;;
40955;SDS011;26687;48.254;11.454;2023-04-30T14:12:18;1.83;;;1.70;;
40955;SDS011;26687;48.254;11.454;2023-04-30T14:15:20;1.90;;;1.60;;
40955;SDS011;26687;48.254;11.454;2023-04-30T14:18:21;1.90;;;1.70;;
40955;SDS011;26687;48.254;11.454;2023-04-30T14:21:21;2.38;;;1.83;;
40955;SDS011;26687;48.254;11.454;2023-04-30T14:24:21;2.17;;;2.07;;
40955;SDS011;26687;48.254;11.454;2023-04-30T14:27:22;2.00;;;1.90;;
40955;SDS011;26687;48.254;11.454;2023-04-30T14:30:22;2.42;;;1.50;;
40955;SDS011;26687;48.254;11.454;2023-04-30T14:33:22;1.77;;;1.67;;
40955;SDS011;26687;48.254;11.454;2023-04-30T14:36:22;1.83;;;1.73;;
40955;SDS011;26687;48.254;11.454;2023-04-30T14:39:23;1.77;;;1.67;;
40955;SDS011;26687;48.254;11.454;2023-04-30T14:42:23;1.98;;;1.88;;
40955;SDS011;26687;48.254;11.454;2023-04-30T14:45:23;1.88;;;1.77;;
40955;SDS011;26687;48.254;11.454;2023-04-30T14:48:23;1.70;;;1.60;;
40955;SDS011;26687;48.254;11.454;2023-04-30T14:51:24;2.00;;;1.80;;
40955;SDS011;26687;48.254;11.454;2023-04-30T14:54:24;1.50;;;1.40;;
40955;SDS011;26687;48.254;11.454;2023-04-30T14:57:24;1.77;;;1.67;;
40955;SDS011;26687;48.254;11.454;2023-04-30T15:00:24;1.57;;;1.47;;
40955;SDS011;26687;48.254;11.454;2023-04-30T15:03:25;2.40;;;2.00;;
40955;SDS011;26687;48.254;11.454;2023-04-30T15:06:25;1.40;;;1.30;;
40955;SDS011;26687;48.254;11.454;2023-04-30T15:09:25;1.30;;;1.20;;
40955;SDS011;26687;48.254;11.454;2023-04-30T15:12:26;1.95;;;1.52;;
40955;SDS011;26687;48.254;11.454;2023-04-30T15:15:26;1.53;;;1.43;;
40955;SDS011;26687;48.254;11.454;2023-04-30T15:18:28;2.13;;;1.92;;
40955;SDS011;26687;48.254;11.454;2023-04-30T15:21:28;1.40;;;1.30;;
40955;SDS011;26687;48.254;11.454;2023-04-30T15:24:28;1.45;;;1.35;;
40955;SDS011;26687;48.254;11.454;2023-04-30T15:27:28;1.73;;;1.33;;
40955;SDS011;26687;48.254;11.454;2023-04-30T15:30:29;1.97;;;1.60;;
40955;SDS011;26687;48.254;11.454;2023-04-30T15:33:29;1.83;;;1.73;;
40955;SDS011;26687;48.254;11.454;2023-04-30T15:36:30;1.85;;;1.75;;
40955;SDS011;26687;48.254;11.454;2023-04-30T15:39:31;1.60;;;1.42;;
40955;SDS011;26687;48.254;11.454;2023-04-30T15:42:31;1.58;;;1.48;;
40955;SDS011;26687;48.254;11.454;2023-04-30T15:45:32;2.33;;;1.50;;
40955;SDS011;26687;48.254;11.454;2023-04-30T15:48:32;1.88;;;1.60;;
40955;SDS011;26687;48.254;11.454;2023-04-30T15:51:32;1.63;;;1.53;;
40955;SDS011;26687;48.254;11.454;2023-04-30T15:54:34;3.30;;;1.92;;
40955;SDS011;26687;48.254;11.454;2023-04-30T15:57:34;1.88;;;1.50;;
40955;SDS011;26687;48.254;11.454;2023-04-30T16:00:34;2.38;;;1.45;;
40955;SDS011;26687;48.254;11.454;2023-04-30T16:03:34;2.13;;;1.70;;
40955;SDS011;26687;48.254;11.454;2023-04-30T16:06:36;1.55;;;1.45;;
40955;SDS011;26687;48.254;11.454;2023-04-30T16:09:36;1.95;;;1.77;;
40955;SDS011;26687;48.254;11.454;2023-04-30T16:12:37;1.50;;;1.40;;
40955;SDS011;26687;48.254;11.454;2023-04-30T16:15:38;2.13;;;1.58;;
40955;SDS011;26687;48.254;11.454;2023-04-30T16:18:38;2.37;;;2.00;;
40955;SDS011;26687;48.254;11.454;2023-04-30T16:21:38;3.03;;;2.07;;
40955;SDS011;26687;48.254;11.454;2023-04-30T16:24:39;2.22;;;1.98;;
40955;SDS011;26687;48.254;11.454;2023-04-30T16:27:40;2.78;;;1.90;;
40955;SDS011;26687;48.254;11.454;2023-04-30T16:30:42;2.15;;;1.70;;
40955;SDS011;26687;48.254;11.454;2023-04-30T16:33:42;2.50;;;1.80;;
40955;SDS011;26687;48.254;11.454;2023-04-30T16:36:42;2.43;;;2.00;;
40955;SDS011;26687;48.254;11.454;2023-04-30T16:39:43;2.00;;;1.90;;
40955;SDS011;26687;48.254;11.454;2023-04-30T16:42:43;2.07;;;1.90;;
40955;SDS011;26687;48.254;11.454;2023-04-30T16:45:43;2.37;;;2.00;;
40955;SDS011;26687;48.254;11.454;2023-04-30T16:48:43;2.13;;;1.93;;
40955;SDS011;26687;48.254;11.454;2023-04-30T16:51:43;2.00;;;1.90;;
40955;SDS011;26687;48.254;11.454;2023-04-30T16:54:44;2.75;;;2.40;;
40955;SDS011;26687;48.254;11.454;2023-04-30T16:57:45;2.08;;;1.98;;
40955;SDS011;26687;48.254;11.454;2023-04-30T17:00:45;2.72;;;2.08;;
40955;SDS011;26687;48.254;11.454;2023-04-30T17:03:45;2.60;;;2.40;;
40955;SDS011;26687;48.254;11.454;2023-04-30T17:06:45;2.00;;;1.73;;
40955;SDS011;26687;48.254;11.454;2023-04-30T17:09:46;2.13;;;1.98;;
40955;SDS011;26687;48.254;11.454;2023-04-30T17:12:47;2.42;;;2.15;;
40955;SDS011;26687;48.254;11.454;2023-04-30T17:15:47;2.67;;;2.10;;
40955;SDS011;26687;48.254;11.454;2023-04-30T17:18:47;2.67;;;1.88;;
40955;SDS011;26687;48.254;11.454;2023-04-30T17:21:49;2.58;;;1.77;;
40955;SDS011;26687;48.254;11.454;2023-04-30T17:24:49;2.30;;;2.20;;
40955;SDS011;26687;48.254;11.454;2023-04-30T17:27:49;3.05;;;1.77;;
40955;SDS011;26687;48.254;11.454;2023-04-30T17:30:49;2.50;;;1.97;;
40955;SDS011;26687;48.254;11.454;2023-04-30T17:33:49;2.27;;;2.07;;
40955;SDS011;26687;48.254;11.454;2023-04-30T17:36:50;2.80;;;2.10;;
40955;SDS011;26687;48.254;11.454;2023-04-30T17:39:50;2.13;;;1.92;;
40955;SDS011;26687;48.254;11.454;2023-04-30T17:42:50;2.03;;;1.88;;
40955;SDS011;26687;48.254;11.454;2023-04-30T17:45:50;3.47;;;2.30;;
40955;SDS011;26687;48.254;11.454;2023-04-30T17:48:52;1.92;;;1.83;;
40955;SDS011;26687;48.254;11.454;2023-04-30T17:51:52;2.00;;;1.90;;
40955;SDS011;26687;48.254;11.454;2023-04-30T17:54:52;2.05;;;1.88;;
40955;SDS011;26687;48.254;11.454;2023-04-30T17:57:52;3.70;;;2.20;;
40955;SDS011;26687;48.254;11.454;2023-04-30T18:00:53;4.38;;;2.45;;
40955;SDS011;26687;48.254;11.454;2023-04-30T18:03:57;2.95;;;2.30;;
40955;SDS011;26687;48.254;11.454;2023-04-30T18:06:57;2.20;;;2.00;;
40955;SDS011;26687;48.254;11.454;2023-04-30T18:09:58;2.30;;;2.10;;
40955;SDS011;26687;48.254;11.454;2023-04-30T18:12:58;3.20;;;2.00;;
40955;SDS011;26687;48.254;11.454;2023-04-30T18:15:58;3.43;;;2.30;;
40955;SDS011;26687;48.254;11.454;2023-04-30T18:18:59;2.95;;;2.50;;
40955;SDS011;26687;48.254;11.454;2023-04-30T18:21:59;2.47;;;2.28;;